createdAt,value
2018-05-25T00:01:06.750Z,99.90
2018-05-25T00:03:34.221Z,99.90
2018-05-25T00:06:01.703Z,99.90
2018-05-25T00:08:29.163Z,99.90
2018-05-25T00:10:56.621Z,99.90
2018-05-25T00:13:24.087Z,99.90
2018-05-25T00:15:51.539Z,99.90
2018-05-25T00:18:19.053Z,99.90
2018-05-25T00:20:46.541Z,99.90
2018-05-25T00:23:13.998Z,99.90
2018-05-25T00:25:41.481Z,99.90
2018-05-25T00:28:08.947Z,99.90
2018-05-25T00:30:37.178Z,99.90
2018-05-25T00:33:04.647Z,99.90
2018-05-25T00:35:32.131Z,99.90
2018-05-25T00:37:59.604Z,99.90
2018-05-25T00:40:27.072Z,99.90
2018-05-25T00:42:54.542Z,99.90
2018-05-25T00:45:22.014Z,99.90
2018-05-25T00:47:49.486Z,99.90
2018-05-25T00:50:17.816Z,99.90
2018-05-25T00:52:45.275Z,99.90
2018-05-25T00:55:24.734Z,99.90
2018-05-25T00:57:52.201Z,99.90
2018-05-25T01:00:19.675Z,99.90
2018-05-25T01:02:47.122Z,99.90
2018-05-25T01:05:14.584Z,99.90
2018-05-25T01:07:42.041Z,99.90
2018-05-25T01:10:09.515Z,99.90
2018-05-25T01:12:36.966Z,99.90
2018-05-25T01:15:04.430Z,99.90
2018-05-25T01:17:31.902Z,99.90
2018-05-25T01:19:59.352Z,99.90
2018-05-25T01:22:27.577Z,99.90
2018-05-25T01:24:55.059Z,99.90
2018-05-25T01:27:22.528Z,99.90
2018-05-25T01:29:49.979Z,99.90
2018-05-25T01:32:17.446Z,99.90
2018-05-25T01:34:44.900Z,99.90
2018-05-25T01:37:12.352Z,99.90
2018-05-25T01:39:40.577Z,99.90
2018-05-25T01:42:08.031Z,99.90
2018-05-25T01:44:35.495Z,99.90
2018-05-25T01:47:03.735Z,99.90
2018-05-25T01:49:31.189Z,99.90
2018-05-25T01:51:58.667Z,99.90
2018-05-25T01:54:27.223Z,99.90
2018-05-25T01:56:55.450Z,99.90
2018-05-25T01:59:22.914Z,99.90
2018-05-25T02:01:50.369Z,99.90
2018-05-25T02:04:18.685Z,99.90
2018-05-25T02:06:46.148Z,99.90
2018-05-25T02:09:13.620Z,99.90
2018-05-25T02:11:41.092Z,99.90
2018-05-25T02:14:08.558Z,99.90
2018-05-25T02:16:36.026Z,99.90
2018-05-25T02:19:03.495Z,99.90
2018-05-25T02:21:30.958Z,99.90
2018-05-25T02:23:58.426Z,99.90
2018-05-25T02:26:25.880Z,99.90
2018-05-25T02:28:53.357Z,99.90
2018-05-25T02:31:20.804Z,99.90
2018-05-25T02:33:48.257Z,99.90
2018-05-25T02:36:16.536Z,99.90
2018-05-25T02:38:44.071Z,99.90
2018-05-25T02:41:12.267Z,99.90
2018-05-25T02:43:39.831Z,99.90
2018-05-25T02:46:07.310Z,99.90
2018-05-25T02:48:34.770Z,99.90
2018-05-25T02:51:02.259Z,99.90
2018-05-25T02:53:29.724Z,99.90
2018-05-25T02:55:57.188Z,99.90
2018-05-25T02:58:24.651Z,99.90
2018-05-25T03:00:52.128Z,99.90
2018-05-25T03:03:19.598Z,99.90
2018-05-25T03:05:47.843Z,99.90
2018-05-25T03:08:15.314Z,99.90
2018-05-25T03:10:42.786Z,99.90
2018-05-25T03:13:10.254Z,99.90
2018-05-25T03:15:37.710Z,99.90
2018-05-25T03:18:05.944Z,99.90
2018-05-25T03:20:34.168Z,99.90
2018-05-25T03:23:02.400Z,99.90
2018-05-25T03:25:29.865Z,99.90
2018-05-25T03:27:57.316Z,99.90
2018-05-25T03:30:24.792Z,99.90
2018-05-25T03:32:52.264Z,99.90
2018-05-25T03:35:19.730Z,99.90
2018-05-25T03:37:47.226Z,99.90
2018-05-25T03:40:14.689Z,99.90
2018-05-25T03:42:42.154Z,99.90
2018-05-25T03:45:09.615Z,99.90
2018-05-25T03:47:37.095Z,99.90
2018-05-25T03:50:04.536Z,99.90
2018-05-25T03:52:32.777Z,99.90
2018-05-25T03:55:00.237Z,99.90
2018-05-25T03:57:27.685Z,99.90
2018-05-25T04:00:07.066Z,99.90
2018-05-25T04:02:35.288Z,99.90
2018-05-25T04:05:03.532Z,99.90
2018-05-25T04:07:30.983Z,99.90
2018-05-25T04:09:58.441Z,99.90
2018-05-25T04:12:25.903Z,99.90
2018-05-25T04:14:54.126Z,99.90
2018-05-25T04:17:21.594Z,99.90
2018-05-25T04:19:49.058Z,99.90
2018-05-25T04:22:16.562Z,99.90
2018-05-25T04:24:44.030Z,99.90
2018-05-25T04:27:11.507Z,99.90
2018-05-25T04:29:38.983Z,99.90
2018-05-25T04:32:06.440Z,99.90
2018-05-25T04:34:33.892Z,99.90
2018-05-25T04:37:01.362Z,99.90
2018-05-25T04:39:28.831Z,99.90
2018-05-25T04:41:56.292Z,99.90
2018-05-25T04:44:24.136Z,99.90
2018-05-25T04:46:52.351Z,99.90
2018-05-25T04:49:19.826Z,99.90
2018-05-25T04:51:47.275Z,99.90
2018-05-25T04:54:14.747Z,99.90
2018-05-25T04:56:42.226Z,99.90
2018-05-25T04:59:09.700Z,99.90
2018-05-25T05:01:37.178Z,99.90
2018-05-25T05:04:04.664Z,99.90
2018-05-25T05:06:32.125Z,99.90
2018-05-25T05:08:59.603Z,99.90
2018-05-25T05:11:27.071Z,99.90
2018-05-25T05:13:54.524Z,99.90
2018-05-25T05:16:22.002Z,99.90
2018-05-25T05:18:50.219Z,99.90
2018-05-25T05:21:17.688Z,99.90
2018-05-25T05:23:45.144Z,99.90
2018-05-25T05:26:12.615Z,99.90
2018-05-25T05:28:40.086Z,99.90
2018-05-25T05:31:07.541Z,99.90
2018-05-25T05:33:35.032Z,99.90
2018-05-25T05:36:02.478Z,99.90
2018-05-25T05:38:29.924Z,99.90
2018-05-25T05:40:57.474Z,99.90
2018-05-25T05:43:24.868Z,99.90
2018-05-25T05:45:52.368Z,99.90
2018-05-25T05:48:19.816Z,99.90
2018-05-25T05:50:47.283Z,99.90
2018-05-25T05:53:14.776Z,99.90
2018-05-25T05:55:42.221Z,99.90
2018-05-25T05:58:09.696Z,99.90
2018-05-25T06:00:37.139Z,99.90
2018-05-25T06:03:04.587Z,99.90
2018-05-25T06:05:32.812Z,99.90
2018-05-25T06:08:00.288Z,99.90
2018-05-25T06:10:27.752Z,99.90
2018-05-25T06:12:55.239Z,99.90
2018-05-25T06:15:22.688Z,99.90
2018-05-25T06:17:50.157Z,99.90
2018-05-25T06:20:17.644Z,99.90
2018-05-25T06:22:45.115Z,99.90
2018-05-25T06:25:12.577Z,99.90
2018-05-25T06:27:40.804Z,99.90
2018-05-25T06:30:09.043Z,99.90
2018-05-25T06:32:36.518Z,99.90
2018-05-25T06:35:03.968Z,99.90
2018-05-25T06:37:31.430Z,99.90
2018-05-25T06:39:58.906Z,99.90
2018-05-25T06:42:26.373Z,99.90
2018-05-25T06:44:53.851Z,99.90
2018-05-25T06:47:21.321Z,99.90
2018-05-25T06:49:48.782Z,99.90
2018-05-25T06:52:16.284Z,99.90
2018-05-25T06:54:43.736Z,99.90
2018-05-25T06:57:11.241Z,99.90
2018-05-25T06:59:38.662Z,99.90
2018-05-25T07:02:06.117Z,99.90
2018-05-25T07:04:33.588Z,99.90
2018-05-25T07:07:01.040Z,99.90
2018-05-25T07:09:29.256Z,99.90
2018-05-25T07:11:56.716Z,99.90
2018-05-25T07:14:24.169Z,99.90
2018-05-25T07:16:52.402Z,99.90
2018-05-25T07:19:19.853Z,99.90
2018-05-25T07:21:47.328Z,99.90
2018-05-25T07:24:14.803Z,99.90
2018-05-25T07:26:42.269Z,99.90
2018-05-25T07:29:09.729Z,99.90
2018-05-25T07:31:37.188Z,99.90
2018-05-25T07:34:04.647Z,99.90
2018-05-25T07:36:32.882Z,99.90
2018-05-25T07:39:00.360Z,99.90
2018-05-25T07:41:27.822Z,99.90
2018-05-25T07:43:55.269Z,99.90
2018-05-25T07:46:22.748Z,99.90
2018-05-25T07:48:50.212Z,99.90
2018-05-25T07:51:17.720Z,99.90
2018-05-25T07:53:45.211Z,99.90
2018-05-25T07:56:13.442Z,99.90
2018-05-25T07:58:40.900Z,99.90
2018-05-25T08:01:08.354Z,99.90
2018-05-25T08:03:36.599Z,99.90
2018-05-25T08:06:04.069Z,99.90
2018-05-25T08:08:31.538Z,99.90
2018-05-25T08:10:59.773Z,99.90
2018-05-25T08:13:27.263Z,99.90
2018-05-25T08:15:54.817Z,99.90
2018-05-25T08:18:23.051Z,99.90
2018-05-25T08:20:50.495Z,99.90
2018-05-25T08:23:17.982Z,99.90
2018-05-25T08:25:45.446Z,99.90
2018-05-25T08:28:12.926Z,99.90
2018-05-25T08:30:40.386Z,99.90
2018-05-25T08:33:07.846Z,99.90
2018-05-25T08:35:35.322Z,99.90
2018-05-25T08:38:02.775Z,99.90
2018-05-25T08:40:30.241Z,99.90
2018-05-25T08:42:57.725Z,99.90
2018-05-25T08:45:25.198Z,99.90
2018-05-25T08:47:52.667Z,99.90
2018-05-25T08:50:20.130Z,99.90
2018-05-25T08:52:47.646Z,99.90
2018-05-25T08:55:15.152Z,99.90
2018-05-25T08:57:43.343Z,99.90
2018-05-25T09:00:10.807Z,99.90
2018-05-25T09:02:38.271Z,99.90
2018-05-25T09:05:05.744Z,99.90
2018-05-25T09:07:33.210Z,99.90
2018-05-25T09:10:00.690Z,99.90
2018-05-25T09:12:28.213Z,99.90
2018-05-25T09:14:55.607Z,99.90
2018-05-25T09:17:23.837Z,99.90
2018-05-25T09:19:51.315Z,99.90
2018-05-25T09:22:18.773Z,99.90
2018-05-25T09:24:46.262Z,99.90
2018-05-25T09:27:13.735Z,99.90
2018-05-25T09:29:41.211Z,99.90
2018-05-25T09:32:08.661Z,99.90
2018-05-25T09:34:36.157Z,99.90
2018-05-25T09:37:03.604Z,99.90
2018-05-25T09:39:31.835Z,99.90
2018-05-25T09:42:00.075Z,99.90
2018-05-25T09:44:27.532Z,99.90
2018-05-25T09:46:55.022Z,99.90
2018-05-25T09:49:22.487Z,99.90
2018-05-25T09:51:49.936Z,99.90
2018-05-25T09:54:17.426Z,99.90
2018-05-25T09:56:56.916Z,99.90
2018-05-25T09:59:24.376Z,99.90
2018-05-25T10:01:51.860Z,99.90
2018-05-25T10:04:19.335Z,99.90
2018-05-25T10:06:46.781Z,99.90
2018-05-25T10:09:14.240Z,99.90
2018-05-25T10:11:41.726Z,99.90
2018-05-25T10:14:09.187Z,99.90
2018-05-25T10:16:36.641Z,99.90
2018-05-25T10:19:04.864Z,99.90
2018-05-25T10:21:32.333Z,99.90
2018-05-25T10:23:59.802Z,99.90
2018-05-25T10:26:27.266Z,99.90
2018-05-25T10:28:54.735Z,99.90
2018-05-25T10:31:22.203Z,99.90
2018-05-25T10:33:49.674Z,99.90
2018-05-25T10:36:17.167Z,99.90
2018-05-25T10:38:45.392Z,99.90
2018-05-25T10:41:12.904Z,99.90
2018-05-25T10:43:40.357Z,99.90
2018-05-25T10:46:07.799Z,99.90
2018-05-25T10:48:35.259Z,99.90
2018-05-25T10:51:02.724Z,99.90
2018-05-25T10:53:30.175Z,99.90
2018-05-25T10:55:57.663Z,99.90
2018-05-25T10:58:25.848Z,99.90
2018-05-25T11:00:53.342Z,99.90
2018-05-25T11:03:20.794Z,99.90
2018-05-25T11:05:48.244Z,99.90
2018-05-25T11:08:15.716Z,99.90
2018-05-25T11:10:43.192Z,99.90
2018-05-25T11:13:10.647Z,99.90
2018-05-25T11:15:38.878Z,99.90
2018-05-25T11:18:06.332Z,99.90
2018-05-25T11:20:33.788Z,99.90
2018-05-25T11:23:01.241Z,99.90
2018-05-25T11:25:29.479Z,99.90
2018-05-25T11:27:56.946Z,99.90
2018-05-25T11:30:24.396Z,99.90
2018-05-25T11:32:51.862Z,99.90
2018-05-25T11:35:19.347Z,99.90
2018-05-25T11:37:46.804Z,99.90
2018-05-25T11:40:14.250Z,99.10
2018-05-25T11:42:42.542Z,98.90
2018-05-25T11:45:10.195Z,98.90
2018-05-25T11:47:37.658Z,99.50
2018-05-25T11:50:05.116Z,99.70
2018-05-25T11:52:32.571Z,99.30
2018-05-25T11:55:00.032Z,99.50
2018-05-25T11:57:27.482Z,99.90
2018-05-25T11:59:54.947Z,99.90
2018-05-25T12:02:22.392Z,99.90
2018-05-25T12:04:50.596Z,99.90
2018-05-25T12:07:18.057Z,99.90
2018-05-25T12:09:46.273Z,98.40
2018-05-25T12:12:13.721Z,98.40
2018-05-25T12:14:41.192Z,96.10
2018-05-25T12:17:08.646Z,97.10
2018-05-25T12:19:36.861Z,96.40
2018-05-25T12:22:04.319Z,96.40
2018-05-25T12:24:31.776Z,96.80
2018-05-25T12:27:00.004Z,96.70
2018-05-25T12:29:27.464Z,96.70
2018-05-25T12:31:54.912Z,96.00
2018-05-25T12:34:22.360Z,93.60
2018-05-25T12:36:49.846Z,91.70
2018-05-25T12:39:18.075Z,85.30
2018-05-25T12:41:45.508Z,85.10
2018-05-25T12:44:12.975Z,75.50
2018-05-25T12:46:40.430Z,72.40
2018-05-25T12:49:08.662Z,73.00
2018-05-25T12:51:36.132Z,73.10
2018-05-25T12:54:03.613Z,71.90
2018-05-25T12:56:31.079Z,70.60
2018-05-25T12:58:58.527Z,71.90
2018-05-25T13:01:25.994Z,74.40
2018-05-25T13:03:53.448Z,73.90
2018-05-25T13:06:21.683Z,71.90
2018-05-25T13:08:49.147Z,71.90
2018-05-25T13:11:16.610Z,72.80
2018-05-25T13:13:44.911Z,75.00
2018-05-25T13:16:12.378Z,75.70
2018-05-25T13:18:39.832Z,74.90
2018-05-25T13:21:07.297Z,77.60
2018-05-25T13:23:34.748Z,78.70
2018-05-25T13:26:02.207Z,78.30
2018-05-25T13:28:30.428Z,79.70
2018-05-25T13:30:57.877Z,79.60
2018-05-25T13:33:25.337Z,79.80
2018-05-25T13:35:53.564Z,80.00
2018-05-25T13:38:21.023Z,80.00
2018-05-25T13:40:48.459Z,80.90
2018-05-25T13:43:16.696Z,80.10
2018-05-25T13:45:44.146Z,79.90
2018-05-25T13:48:11.592Z,82.20
2018-05-25T13:50:39.055Z,85.10
2018-05-25T13:53:07.283Z,81.80
2018-05-25T13:55:34.738Z,81.80
2018-05-25T13:58:02.194Z,82.50
2018-05-25T14:00:29.654Z,80.00
2018-05-25T14:02:57.117Z,79.50
2018-05-25T14:05:25.320Z,80.70
2018-05-25T14:07:52.782Z,80.70
2018-05-25T14:10:20.262Z,83.40
2018-05-25T14:12:47.727Z,81.00
2018-05-25T14:15:15.196Z,80.70
2018-05-25T14:17:42.671Z,80.30
2018-05-25T14:20:10.138Z,83.30
2018-05-25T14:22:37.582Z,83.00
2018-05-25T14:25:05.818Z,81.90
2018-05-25T14:27:33.283Z,81.70
2018-05-25T14:30:00.743Z,82.20
2018-05-25T14:32:28.194Z,82.30
2018-05-25T14:34:55.641Z,83.90
2018-05-25T14:37:23.851Z,84.00
2018-05-25T14:39:51.312Z,83.90
2018-05-25T14:42:19.530Z,84.30
2018-05-25T14:44:47.012Z,84.30
2018-05-25T14:47:14.497Z,86.70
2018-05-25T14:49:41.960Z,84.10
2018-05-25T14:52:09.423Z,85.30
2018-05-25T14:54:37.688Z,86.40
2018-05-25T14:57:05.145Z,86.50
2018-05-25T14:59:32.613Z,82.90
2018-05-25T15:02:00.074Z,84.60
2018-05-25T15:04:28.310Z,87.50
2018-05-25T15:06:55.799Z,87.50
2018-05-25T15:09:23.256Z,86.10
2018-05-25T15:11:50.718Z,84.40
2018-05-25T15:14:18.160Z,82.80
2018-05-25T15:16:45.612Z,84.10
2018-05-25T15:19:13.092Z,84.30
2018-05-25T15:21:40.563Z,84.30
2018-05-25T15:24:08.030Z,83.60
2018-05-25T15:26:35.487Z,83.10
2018-05-25T15:29:03.716Z,82.50
2018-05-25T15:31:31.182Z,82.40
2018-05-25T15:33:58.668Z,84.90
2018-05-25T15:36:26.126Z,83.20
2018-05-25T15:38:53.609Z,83.30
2018-05-25T15:41:21.074Z,83.90
2018-05-25T15:43:48.548Z,86.30
2018-05-25T15:46:16.000Z,85.70
2018-05-25T15:48:44.211Z,86.60
2018-05-25T15:51:11.669Z,86.40
2018-05-25T15:53:39.117Z,85.40
2018-05-25T15:56:06.576Z,85.30
2018-05-25T15:58:34.039Z,85.70
2018-05-25T16:01:01.484Z,87.20
2018-05-25T16:03:29.695Z,86.40
2018-05-25T16:05:57.170Z,86.40
2018-05-25T16:08:24.624Z,87.30
2018-05-25T16:10:52.840Z,87.70
2018-05-25T16:13:20.289Z,87.80
2018-05-25T16:15:47.744Z,87.00
2018-05-25T16:18:15.999Z,85.50
2018-05-25T16:20:43.447Z,85.50
2018-05-25T16:23:10.887Z,85.70
2018-05-25T16:25:38.377Z,85.00
2018-05-25T16:28:05.812Z,84.90
2018-05-25T16:30:34.020Z,84.00
2018-05-25T16:33:01.522Z,84.00
2018-05-25T16:35:29.039Z,84.30
2018-05-25T16:37:57.251Z,84.40
2018-05-25T16:40:24.716Z,84.30
2018-05-25T16:42:52.178Z,84.60
2018-05-25T16:45:20.399Z,83.50
2018-05-25T16:47:47.868Z,83.50
2018-05-25T16:50:15.369Z,84.50
2018-05-25T16:52:42.817Z,85.50
2018-05-25T16:55:10.271Z,83.90
2018-05-25T16:57:37.725Z,81.80
2018-05-25T17:00:05.214Z,80.90
2018-05-25T17:02:32.639Z,79.40
2018-05-25T17:05:00.877Z,78.80
2018-05-25T17:07:28.350Z,78.70
2018-05-25T17:09:55.817Z,79.00
2018-05-25T17:12:23.261Z,78.20
2018-05-25T17:14:50.730Z,76.50
2018-05-25T17:17:18.190Z,77.50
2018-05-25T17:19:46.426Z,77.30
2018-05-25T17:22:13.892Z,77.30
2018-05-25T17:24:42.138Z,77.10
2018-05-25T17:27:10.355Z,77.50
2018-05-25T17:29:37.843Z,77.50
2018-05-25T17:32:05.294Z,77.60
2018-05-25T17:34:32.770Z,77.70
2018-05-25T17:37:00.209Z,76.80
2018-05-25T17:39:27.704Z,77.30
2018-05-25T17:41:55.163Z,78.10
2018-05-25T17:44:22.630Z,80.50
2018-05-25T17:46:50.087Z,79.10
2018-05-25T17:49:17.626Z,80.50
2018-05-25T17:51:45.097Z,79.90
2018-05-25T17:54:12.562Z,80.70
2018-05-25T17:56:40.012Z,81.90
2018-05-25T17:59:07.495Z,83.30
2018-05-25T18:01:34.957Z,82.50
2018-05-25T18:04:02.401Z,83.70
2018-05-25T18:06:29.853Z,84.00
2018-05-25T18:08:57.288Z,85.80
2018-05-25T18:11:24.761Z,84.90
2018-05-25T18:13:52.218Z,84.90
2018-05-25T18:16:19.661Z,85.30
2018-05-25T18:18:47.101Z,86.50
2018-05-25T18:21:14.559Z,86.70
2018-05-25T18:23:42.779Z,86.20
2018-05-25T18:26:10.259Z,86.20
2018-05-25T18:28:37.722Z,88.00
2018-05-25T18:31:05.194Z,88.80
2018-05-25T18:33:32.637Z,89.00
2018-05-25T18:36:00.095Z,89.50
2018-05-25T18:38:28.323Z,90.80
2018-05-25T18:40:55.786Z,90.80
2018-05-25T18:43:23.252Z,91.00
2018-05-25T18:45:50.700Z,90.50
2018-05-25T18:48:18.168Z,90.80
2018-05-25T18:50:45.645Z,91.60
2018-05-25T18:53:13.092Z,91.60
2018-05-25T18:55:41.308Z,92.40
2018-05-25T18:58:08.769Z,92.30
2018-05-25T19:00:36.207Z,92.80
2018-05-25T19:03:03.652Z,93.20
2018-05-25T19:05:31.116Z,93.40
2018-05-25T19:07:59.328Z,94.30
2018-05-25T19:10:26.790Z,94.30
2018-05-25T19:12:54.270Z,94.80
2018-05-25T19:15:21.717Z,95.40
2018-05-25T19:17:49.173Z,95.60
2018-05-25T19:20:16.622Z,96.00
2018-05-25T19:22:44.083Z,96.50
2018-05-25T19:25:11.551Z,96.90
2018-05-25T19:27:38.997Z,97.70
2018-05-25T19:30:07.235Z,98.70
2018-05-25T19:32:34.679Z,98.70
2018-05-25T19:35:02.159Z,99.20
2018-05-25T19:37:29.605Z,99.90
2018-05-25T19:39:57.814Z,99.90
2018-05-25T19:42:25.282Z,99.90
2018-05-25T19:44:52.758Z,99.90
2018-05-25T19:47:20.207Z,99.90
2018-05-25T19:49:47.691Z,99.90
2018-05-25T19:52:15.141Z,99.90
2018-05-25T19:54:43.370Z,99.90
2018-05-25T19:57:10.829Z,99.90
2018-05-25T19:59:38.300Z,99.90
2018-05-25T20:02:05.752Z,99.90
2018-05-25T20:04:34.020Z,99.90
2018-05-25T20:07:02.242Z,99.90
2018-05-25T20:09:29.699Z,99.90
2018-05-25T20:11:57.172Z,99.90
2018-05-25T20:14:24.612Z,99.90
2018-05-25T20:16:52.835Z,99.90
2018-05-25T20:19:20.299Z,99.90
2018-05-25T20:21:47.752Z,99.90
2018-05-25T20:24:15.217Z,99.90
2018-05-25T20:26:42.676Z,99.90
2018-05-25T20:29:10.897Z,99.90
2018-05-25T20:31:38.367Z,99.90
2018-05-25T20:34:05.820Z,99.90
2018-05-25T20:36:33.272Z,99.90
2018-05-25T20:39:01.579Z,99.90
2018-05-25T20:41:29.032Z,99.90
2018-05-25T20:43:57.252Z,99.90
2018-05-25T20:46:24.730Z,99.90
2018-05-25T20:48:52.242Z,99.90
2018-05-25T20:51:19.701Z,99.90
2018-05-25T20:53:47.160Z,99.90
2018-05-25T20:56:14.620Z,99.90
2018-05-25T20:58:42.079Z,99.90
2018-05-25T21:01:09.529Z,99.90
2018-05-25T21:03:37.016Z,99.90
2018-05-25T21:06:04.463Z,99.90
2018-05-25T21:08:31.910Z,99.90
2018-05-25T21:11:00.147Z,99.90
2018-05-25T21:13:27.597Z,99.90
2018-05-25T21:15:55.061Z,99.90
2018-05-25T21:18:22.532Z,99.90
2018-05-25T21:20:49.989Z,99.90
2018-05-25T21:23:17.469Z,99.90
2018-05-25T21:25:44.929Z,99.90
2018-05-25T21:28:12.391Z,99.90
2018-05-25T21:30:39.856Z,99.90
2018-05-25T21:33:08.102Z,99.90
2018-05-25T21:35:35.556Z,99.90
2018-05-25T21:38:03.020Z,99.90
2018-05-25T21:40:30.472Z,99.90
2018-05-25T21:42:57.958Z,99.90
2018-05-25T21:45:26.381Z,99.90
2018-05-25T21:47:53.848Z,99.90
2018-05-25T21:50:21.301Z,99.90
2018-05-25T21:52:48.762Z,99.90
2018-05-25T21:55:16.230Z,99.90
2018-05-25T21:57:43.693Z,99.90
2018-05-25T22:00:11.166Z,99.90
2018-05-25T22:02:38.635Z,99.90
2018-05-25T22:05:06.089Z,99.90
2018-05-25T22:07:33.559Z,99.90
2018-05-25T22:10:01.804Z,99.90
2018-05-25T22:12:29.266Z,99.90
2018-05-25T22:14:56.774Z,99.90
2018-05-25T22:17:25.010Z,99.90
2018-05-25T22:19:52.503Z,99.90
2018-05-25T22:22:19.962Z,99.90
2018-05-25T22:24:47.418Z,99.90
2018-05-25T22:27:14.864Z,99.90
2018-05-25T22:29:42.332Z,99.90
2018-05-25T22:32:09.811Z,99.90
2018-05-25T22:34:37.257Z,99.90
2018-05-25T22:37:05.522Z,99.90
2018-05-25T22:39:32.972Z,99.90
2018-05-25T22:41:59.945Z,99.90
2018-05-25T22:44:39.302Z,99.90
2018-05-25T22:47:18.721Z,99.90
2018-05-25T22:49:58.150Z,99.90
2018-05-25T22:52:30.767Z,99.90
2018-05-25T22:54:58.246Z,99.90
2018-05-25T22:57:25.733Z,99.90
2018-05-25T22:59:53.204Z,99.90
2018-05-25T23:02:20.656Z,99.90
2018-05-25T23:04:48.117Z,99.90
2018-05-25T23:07:15.570Z,99.90
2018-05-25T23:09:43.027Z,99.90
2018-05-25T23:12:10.497Z,99.90
2018-05-25T23:14:37.963Z,99.90
2018-05-25T23:17:05.416Z,99.90
2018-05-25T23:19:32.904Z,99.90
2018-05-25T23:22:00.364Z,99.90
2018-05-25T23:24:27.828Z,99.90
2018-05-25T23:26:56.458Z,99.90
2018-05-25T23:29:23.928Z,99.90
2018-05-25T23:31:51.394Z,99.90
2018-05-25T23:34:18.862Z,99.90
2018-05-25T23:36:46.328Z,99.90
2018-05-25T23:39:13.783Z,99.90
2018-05-25T23:41:42.023Z,99.90
2018-05-25T23:44:09.489Z,99.90
2018-05-25T23:46:37.012Z,99.90
2018-05-25T23:49:04.491Z,99.90
2018-05-25T23:51:31.954Z,99.90
2018-05-25T23:53:59.419Z,99.90
2018-05-25T23:56:26.864Z,99.90
2018-05-25T23:58:55.082Z,99.90
